Time;durP1;ratioP1;P1;durP2;ratioP2;P2;SDS_P1;SDS_P2;PMS_P1;PMS_P2;Temp;Humidity;BMP_temperature;BMP_pressure;BME280_temperature;BME280_humidity;BME280_pressure;Samples;Min_cycle;Max_cycle;Signal;HPM_P1;HPM_P2
2021/01/23 00:00:24;;;;;;;17.00;13.33;;;4.00;99.90;;;;;;5107875;27;20218;-76
2021/01/23 00:02:49;;;;;;;18.97;14.13;;;3.90;99.90;;;;;;5106011;28;20267;-76
2021/01/23 00:05:15;;;;;;;17.73;12.57;;;3.80;99.90;;;;;;5095366;28;20174;-73
2021/01/23 00:07:41;;;;;;;18.00;14.27;;;3.80;99.90;;;;;;5101684;28;20638;-76
2021/01/23 00:10:07;;;;;;;19.63;14.50;;;3.80;99.90;;;;;;5108515;28;20177;-76
2021/01/23 00:12:33;;;;;;;17.33;14.20;;;3.70;99.90;;;;;;5103433;28;20173;-74
2021/01/23 00:14:58;;;;;;;23.03;16.90;;;3.70;99.90;;;;;;5095252;28;20409;-73
2021/01/23 00:17:24;;;;;;;18.33;14.10;;;3.70;99.90;;;;;;5094107;28;20188;-73
2021/01/23 00:19:49;;;;;;;20.17;15.43;;;3.80;99.90;;;;;;5096227;28;20232;-74
2021/01/23 00:22:15;;;;;;;18.97;14.87;;;3.80;99.90;;;;;;5113525;28;20208;-74
2021/01/23 00:24:40;;;;;;;18.37;14.20;;;3.80;99.90;;;;;;5110634;28;20264;-74
2021/01/23 00:27:06;;;;;;;20.33;14.47;;;3.80;99.90;;;;;;5093686;27;20203;-74
2021/01/23 00:29:32;;;;;;;19.03;14.20;;;3.80;99.90;;;;;;5092462;28;20659;-76
2021/01/23 00:31:57;;;;;;;21.37;15.57;;;3.70;99.90;;;;;;5106278;28;20180;-74
2021/01/23 00:34:23;;;;;;;18.07;14.70;;;3.60;99.90;;;;;;5113275;28;20626;-74
2021/01/23 00:36:49;;;;;;;21.70;15.20;;;3.50;99.90;;;;;;5114296;28;20210;-74
2021/01/23 00:39:14;;;;;;;18.90;13.90;;;3.50;99.90;;;;;;5114506;27;20626;-75
2021/01/23 00:41:40;;;;;;;17.17;14.17;;;3.50;99.90;;;;;;5113535;28;20536;-75
2021/01/23 00:44:06;;;;;;;19.50;14.40;;;3.40;99.90;;;;;;5114688;28;20571;-75
2021/01/23 00:46:31;;;;;;;20.70;15.00;;;3.40;99.90;;;;;;5126938;28;20181;-75
2021/01/23 00:48:57;;;;;;;19.17;14.90;;;3.40;99.90;;;;;;5135492;28;20241;-76
2021/01/23 00:51:22;;;;;;;18.60;13.57;;;3.30;99.90;;;;;;5110822;27;20195;-76
2021/01/23 00:53:48;;;;;;;16.23;14.07;;;3.30;99.90;;;;;;5103694;28;20184;-74
2021/01/23 00:56:14;;;;;;;18.10;14.30;;;3.20;99.90;;;;;;5094759;28;20200;-75
2021/01/23 00:58:40;;;;;;;22.10;14.67;;;3.10;99.90;;;;;;5092456;28;20275;-74
2021/01/23 01:01:06;;;;;;;19.30;14.63;;;3.10;99.90;;;;;;5093931;28;20200;-74
2021/01/23 01:03:32;;;;;;;18.80;15.17;;;3.10;99.90;;;;;;5093502;28;20785;-75
2021/01/23 01:05:57;;;;;;;19.77;14.37;;;3.00;99.90;;;;;;5093728;27;20614;-75
2021/01/23 01:08:23;;;;;;;18.10;13.67;;;3.00;99.90;;;;;;5093598;28;20456;-75
2021/01/23 01:10:49;;;;;;;16.33;14.07;;;2.90;99.90;;;;;;5093295;28;20630;-74
2021/01/23 01:13:16;;;;;;;18.43;15.10;;;2.90;99.90;;;;;;5094500;28;20266;-74
2021/01/23 01:15:42;;;;;;;17.20;14.57;;;2.90;99.90;;;;;;5092996;28;20276;-74
2021/01/23 01:18:08;;;;;;;17.83;14.10;;;2.90;99.90;;;;;;5093375;28;20783;-74
2021/01/23 01:20:34;;;;;;;19.00;14.20;;;2.80;99.90;;;;;;5093632;28;20483;-74
2021/01/23 01:23:00;;;;;;;17.83;13.40;;;2.80;99.90;;;;;;5093347;28;20454;-74
2021/01/23 01:25:26;;;;;;;16.70;14.90;;;2.70;99.90;;;;;;5092786;28;20433;-74
2021/01/23 01:27:53;;;;;;;20.47;15.73;;;2.80;99.90;;;;;;5093255;27;20508;-74
2021/01/23 01:30:19;;;;;;;19.53;14.80;;;2.70;99.90;;;;;;5093685;28;20403;-74
2021/01/23 01:32:44;;;;;;;20.07;15.50;;;2.70;99.90;;;;;;5095204;28;20471;-74
2021/01/23 01:35:10;;;;;;;18.27;14.70;;;2.70;99.90;;;;;;5097355;28;20442;-74
2021/01/23 01:37:36;;;;;;;18.07;15.27;;;2.80;99.90;;;;;;5095221;27;20266;-74
2021/01/23 01:40:03;;;;;;;19.63;14.70;;;2.70;99.90;;;;;;5097014;28;20176;-74
2021/01/23 01:42:29;;;;;;;16.77;13.80;;;2.70;99.90;;;;;;5097867;28;20458;-74
2021/01/23 01:44:54;;;;;;;16.00;13.60;;;2.60;99.90;;;;;;5097342;28;20911;-74
2021/01/23 01:47:20;;;;;;;17.20;13.37;;;2.60;99.90;;;;;;5099095;28;20508;-74
2021/01/23 01:49:47;;;;;;;20.87;15.00;;;2.60;99.90;;;;;;5097525;28;20204;-74
2021/01/23 01:52:13;;;;;;;18.37;14.83;;;2.50;99.90;;;;;;5097744;28;20173;-74
2021/01/23 01:54:40;;;;;;;17.47;13.83;;;2.60;99.90;;;;;;5097637;28;20407;-74
2021/01/23 01:57:05;;;;;;;18.60;14.43;;;2.60;99.90;;;;;;5098657;27;20455;-74
2021/01/23 01:59:31;;;;;;;20.27;13.87;;;2.70;99.90;;;;;;5097700;28;20414;-74
2021/01/23 02:02:18;;;;;;;15.37;12.47;;;2.70;99.90;;;;;;5097014;28;20342;-74
2021/01/23 02:04:55;;;;;;;16.47;12.97;;;2.80;99.90;;;;;;5096925;28;20188;-74
2021/01/23 02:07:34;;;;;;;20.83;14.13;;;2.70;99.90;;;;;;5100556;28;20802;-74
2021/01/23 02:10:21;;;;;;;19.20;14.53;;;2.80;99.90;;;;;;5116896;28;20394;-74
2021/01/23 02:13:26;;;;;;;17.87;13.87;;;2.80;99.90;;;;;;5117096;28;20418;-74
2021/01/23 02:16:03;;;;;;;15.40;13.00;;;2.90;99.90;;;;;;5104635;28;20537;-75
2021/01/23 02:18:42;;;;;;;16.77;13.17;;;3.00;99.90;;;;;;5096931;28;20391;-75
2021/01/23 02:21:07;;;;;;;19.93;12.97;;;3.00;99.90;;;;;;5097166;28;20588;-75
2021/01/23 02:23:38;;;;;;;18.03;13.83;;;3.00;99.90;;;;;;5096871;27;20947;-75
2021/01/23 02:26:22;;;;;;;15.60;13.73;;;3.00;99.90;;;;;;5105369;28;20235;-75
2021/01/23 02:29:02;;;;;;;19.20;13.73;;;3.10;99.90;;;;;;5117567;28;20554;-74
2021/01/23 02:31:31;;;;;;;17.90;12.33;;;3.20;99.90;;;;;;5116446;27;20516;-74
2021/01/23 02:33:59;;;;;;;17.77;13.03;;;3.20;99.90;;;;;;5117329;27;20493;-73
2021/01/23 02:36:25;;;;;;;17.00;12.40;;;3.20;99.90;;;;;;5117478;28;20445;-74
2021/01/23 02:38:52;;;;;;;16.73;12.90;;;3.20;99.90;;;;;;5118999;28;20410;-74
2021/01/23 02:41:18;;;;;;;18.17;11.83;;;3.20;99.90;;;;;;5119585;28;20530;-74
2021/01/23 02:43:45;;;;;;;15.90;12.50;;;3.10;99.90;;;;;;5117690;28;20413;-74
2021/01/23 02:46:11;;;;;;;13.67;11.20;;;3.10;99.90;;;;;;5116214;27;20634;-74
2021/01/23 02:48:40;;;;;;;17.43;12.37;;;3.10;99.90;;;;;;5117818;28;20443;-74
2021/01/23 02:51:34;;;;;;;19.50;12.33;;;3.10;99.90;;;;;;5119072;28;20784;-74
2021/01/23 02:54:08;;;;;;;20.27;12.80;;;3.10;99.90;;;;;;5103176;28;20513;-74
2021/01/23 02:56:35;;;;;;;14.27;12.00;;;3.10;99.90;;;;;;5116660;28;20449;-74
2021/01/23 02:59:02;;;;;;;16.57;10.47;;;3.00;99.90;;;;;;5114420;28;20453;-74
2021/01/23 03:01:33;;;;;;;13.20;10.33;;;3.10;99.90;;;;;;5116035;28;20839;-74
2021/01/23 03:04:00;;;;;;;12.93;11.40;;;3.20;99.90;;;;;;5116013;28;20402;-74
2021/01/23 03:06:25;;;;;;;12.63;10.47;;;3.20;99.90;;;;;;5116282;28;20443;-74
2021/01/23 03:08:51;;;;;;;15.70;11.53;;;3.20;99.90;;;;;;5104245;28;20416;-74
2021/01/23 03:11:16;;;;;;;14.60;9.73;;;3.30;99.90;;;;;;5096272;28;20170;-74
2021/01/23 03:13:42;;;;;;;11.23;9.37;;;3.20;99.90;;;;;;5095964;27;20173;-74
2021/01/23 03:16:08;;;;;;;11.70;9.57;;;3.20;99.90;;;;;;5095130;28;20188;-74
2021/01/23 03:18:34;;;;;;;13.73;9.70;;;3.20;99.90;;;;;;5099696;28;20168;-74
2021/01/23 03:21:00;;;;;;;12.40;9.77;;;3.20;99.90;;;;;;5116372;28;20413;-74
2021/01/23 03:23:25;;;;;;;12.20;9.20;;;3.20;99.90;;;;;;5117553;28;20278;-74
2021/01/23 03:25:51;;;;;;;10.57;9.47;;;3.20;99.90;;;;;;5116548;28;20418;-74
2021/01/23 03:28:16;;;;;;;10.17;9.17;;;3.10;99.90;;;;;;5115867;28;20160;-74
2021/01/23 03:30:42;;;;;;;11.40;9.77;;;3.10;99.90;;;;;;5123103;28;20229;-74
2021/01/23 03:33:08;;;;;;;12.47;9.63;;;3.10;99.90;;;;;;5128491;28;20177;-74
2021/01/23 03:35:33;;;;;;;13.67;8.67;;;3.10;99.90;;;;;;5120109;27;20208;-74
2021/01/23 03:37:59;;;;;;;14.37;9.20;;;3.10;99.90;;;;;;5128996;27;20500;-74
2021/01/23 03:40:24;;;;;;;10.83;9.50;;;3.10;99.90;;;;;;5139704;28;20224;-73
2021/01/23 03:42:50;;;;;;;12.50;9.67;;;3.10;99.90;;;;;;5128552;28;20290;-74
2021/01/23 03:45:16;;;;;;;11.93;9.47;;;3.10;99.90;;;;;;5115120;28;20173;-74
2021/01/23 03:47:41;;;;;;;10.40;9.00;;;3.20;99.90;;;;;;5115070;28;20195;-74
2021/01/23 03:50:08;;;;;;;16.67;10.27;;;3.20;99.90;;;;;;5113854;28;20515;-74
2021/01/23 03:52:35;;;;;;;12.40;10.20;;;3.20;99.90;;;;;;5115545;28;20652;-74
2021/01/23 03:55:00;;;;;;;15.60;9.17;;;3.20;99.90;;;;;;5114809;28;20415;-74
2021/01/23 03:57:26;;;;;;;12.30;9.53;;;3.20;99.90;;;;;;5115110;28;20794;-74
2021/01/23 03:59:51;;;;;;;12.67;9.03;;;3.20;99.90;;;;;;5115528;28;20610;-74
2021/01/23 04:02:17;;;;;;;12.67;9.80;;;3.20;99.90;;;;;;5114418;28;20638;-74
2021/01/23 04:04:42;;;;;;;14.00;10.07;;;3.30;99.90;;;;;;5135977;28;20184;-74
2021/01/23 04:07:08;;;;;;;12.93;9.60;;;3.30;99.90;;;;;;5128543;28;20192;-74
2021/01/23 04:09:34;;;;;;;12.50;9.47;;;3.30;99.90;;;;;;5114126;28;20170;-74
2021/01/23 04:11:59;;;;;;;10.63;8.37;;;3.30;99.90;;;;;;5113231;28;20181;-74
2021/01/23 04:14:25;;;;;;;9.70;8.10;;;3.30;99.90;;;;;;5114772;28;20255;-74
2021/01/23 04:16:50;;;;;;;11.00;8.83;;;3.30;99.90;;;;;;5114583;27;20212;-74
2021/01/23 04:19:17;;;;;;;12.07;7.90;;;3.30;99.90;;;;;;5114654;28;20178;-74
2021/01/23 04:25:05;;;;;;;9.10;8.00;;;3.50;99.90;;;;;;5112134;28;20463;-74
2021/01/23 04:27:31;;;;;;;10.47;8.67;;;3.50;99.90;;;;;;5114024;27;20490;-74
2021/01/23 04:29:57;;;;;;;8.60;7.17;;;3.60;99.90;;;;;;5114239;28;20407;-74
2021/01/23 04:32:22;;;;;;;11.70;7.60;;;3.60;99.90;;;;;;5114578;28;20739;-74
2021/01/23 04:34:48;;;;;;;10.03;7.93;;;3.70;99.90;;;;;;5114110;28;20591;-74
2021/01/23 04:37:14;;;;;;;7.30;6.57;;;3.70;99.90;;;;;;5112327;28;20208;-74
2021/01/23 04:39:39;;;;;;;9.73;7.10;;;3.80;99.90;;;;;;5114775;27;20637;-74
2021/01/23 04:42:08;;;;;;;11.30;7.47;;;3.70;99.90;;;;;;5114405;28;20280;-74
2021/01/23 04:44:35;;;;;;;9.20;8.13;;;3.70;99.90;;;;;;5114341;28;20169;-74
2021/01/23 04:47:02;;;;;;;10.63;8.10;;;3.80;99.90;;;;;;5112516;28;20505;-74
2021/01/23 04:49:32;;;;;;;7.90;7.10;;;3.80;99.90;;;;;;5097354;27;20873;-74
2021/01/23 04:51:58;;;;;;;13.03;7.40;;;3.80;99.90;;;;;;5114118;28;20410;-74
2021/01/23 04:54:24;;;;;;;10.70;7.83;;;3.90;99.90;;;;;;5114291;28;20421;-74
2021/01/23 04:56:50;;;;;;;9.17;6.90;;;3.80;99.90;;;;;;5114140;28;20432;-74
2021/01/23 04:59:16;;;;;;;10.70;7.70;;;3.80;99.90;;;;;;5112080;27;20285;-74
2021/01/23 05:01:42;;;;;;;8.77;7.50;;;3.90;99.90;;;;;;5114596;28;20958;-74
2021/01/23 05:04:08;;;;;;;7.70;6.60;;;3.90;99.90;;;;;;5113671;28;20490;-74
2021/01/23 05:06:34;;;;;;;9.50;7.03;;;3.90;99.90;;;;;;5113949;28;20430;-74
2021/01/23 05:09:00;;;;;;;9.93;7.87;;;3.90;99.90;;;;;;5112199;28;20426;-73
2021/01/23 05:11:48;;;;;;;7.63;6.83;;;3.90;99.90;;;;;;5112509;28;20182;-73
2021/01/23 05:14:15;;;;;;;9.57;7.30;;;4.00;99.90;;;;;;5113381;28;20416;-73
2021/01/23 05:16:41;;;;;;;11.30;7.07;;;4.00;99.90;;;;;;5113320;27;20417;-74
2021/01/23 05:19:08;;;;;;;9.97;8.00;;;4.00;99.90;;;;;;5113579;28;20426;-74
2021/01/23 05:21:34;;;;;;;8.40;7.00;;;4.00;99.90;;;;;;5113661;28;20254;-74
2021/01/23 05:24:13;;;;;;;9.57;7.67;;;4.10;99.90;;;;;;5113308;28;20404;-75
2021/01/23 05:26:39;;;;;;;10.60;7.60;;;4.10;99.90;;;;;;5113450;28;20453;-73
2021/01/23 05:29:11;;;;;;;7.40;6.43;;;4.10;99.90;;;;;;5113275;27;20434;-73
2021/01/23 05:31:37;;;;;;;8.50;7.67;;;4.10;99.90;;;;;;5107914;28;20423;-73
2021/01/23 05:34:31;;;;;;;9.83;6.97;;;4.10;99.90;;;;;;5092802;28;20419;-73
2021/01/23 05:36:57;;;;;;;7.60;6.80;;;4.20;99.90;;;;;;5092213;28;20200;-73
2021/01/23 05:39:49;;;;;;;9.40;6.90;;;4.20;99.90;;;;;;5093283;27;20815;-74
2021/01/23 05:42:15;;;;;;;9.20;6.07;;;4.20;99.90;;;;;;5093586;28;20546;-74
2021/01/23 05:44:41;;;;;;;7.83;6.17;;;4.30;99.90;;;;;;5093036;28;20484;-74
2021/01/23 05:47:26;;;;;;;8.80;6.53;;;4.30;99.90;;;;;;5092865;28;20511;-73
2021/01/23 05:49:53;;;;;;;7.30;6.23;;;4.30;99.90;;;;;;5093243;28;20176;-74
2021/01/23 05:52:19;;;;;;;9.20;6.87;;;4.40;99.90;;;;;;5106771;28;20490;-74
2021/01/23 05:54:45;;;;;;;10.83;6.70;;;4.40;99.90;;;;;;5113132;27;20942;-74
2021/01/23 05:57:10;;;;;;;6.87;5.80;;;4.40;99.90;;;;;;5113119;28;20459;-73
2021/01/23 05:59:39;;;;;;;7.53;6.20;;;4.40;99.90;;;;;;5113449;28;20199;-73
2021/01/23 06:02:07;;;;;;;8.20;6.60;;;4.50;99.90;;;;;;5110301;28;20210;-73
2021/01/23 06:04:32;;;;;;;8.00;6.63;;;4.50;99.90;;;;;;5113105;28;20437;-74
2021/01/23 06:06:58;;;;;;;9.30;6.77;;;4.40;99.90;;;;;;5113122;27;20463;-73
2021/01/23 06:09:33;;;;;;;11.13;6.50;;;4.50;99.90;;;;;;5113800;28;20211;-73
2021/01/23 06:11:59;;;;;;;7.33;6.07;;;4.50;99.90;;;;;;5113774;28;20284;-73
2021/01/23 06:14:38;;;;;;;8.20;6.93;;;4.50;99.90;;;;;;5111493;28;20481;-74
2021/01/23 06:17:04;;;;;;;8.83;5.70;;;4.50;99.90;;;;;;5113542;28;20203;-74
2021/01/23 06:19:30;;;;;;;9.30;6.07;;;4.50;99.90;;;;;;5116224;28;20413;-74
2021/01/23 06:21:55;;;;;;;8.50;6.80;;;4.50;99.90;;;;;;5117014;28;20534;-74
2021/01/23 06:24:30;;;;;;;8.23;6.20;;;4.50;99.90;;;;;;5102926;27;20195;-74
2021/01/23 06:26:55;;;;;;;7.07;5.73;;;4.50;99.90;;;;;;5094280;28;20594;-74
2021/01/23 06:29:31;;;;;;;10.13;6.60;;;4.50;99.90;;;;;;5094391;28;20499;-74
2021/01/23 06:31:56;;;;;;;12.30;6.13;;;4.50;99.90;;;;;;5096714;28;20178;-74
2021/01/23 06:34:24;;;;;;;8.07;6.50;;;4.50;99.90;;;;;;5103002;28;20437;-74
2021/01/23 06:37:10;;;;;;;10.13;6.20;;;4.50;99.90;;;;;;5116707;28;20198;-74
2021/01/23 06:39:55;;;;;;;6.43;5.53;;;4.50;99.90;;;;;;5116351;27;20897;-74
2021/01/23 06:42:22;;;;;;;7.47;6.17;;;4.50;99.90;;;;;;5116654;28;20456;-74
2021/01/23 06:44:47;;;;;;;9.50;6.20;;;4.40;99.90;;;;;;5109332;28;20414;-74
2021/01/23 06:47:13;;;;;;;7.20;5.80;;;4.40;99.90;;;;;;5096154;28;20426;-73
2021/01/23 06:49:42;;;;;;;6.53;5.20;;;4.40;99.90;;;;;;5096458;28;20167;-74
2021/01/23 06:52:08;;;;;;;8.27;6.30;;;4.50;99.90;;;;;;5096513;28;20171;-74
2021/01/23 06:54:35;;;;;;;7.20;5.77;;;4.50;99.90;;;;;;5099082;28;20732;-74
2021/01/23 06:57:02;;;;;;;9.70;7.23;;;4.50;99.90;;;;;;5129281;28;20449;-74
2021/01/23 06:59:30;;;;;;;7.90;6.40;;;4.50;99.90;;;;;;5125112;28;20471;-75
2021/01/23 07:01:58;;;;;;;7.67;6.53;;;4.50;99.90;;;;;;5126508;27;20509;-75
2021/01/23 07:04:24;;;;;;;8.83;5.50;;;4.50;99.90;;;;;;5119218;28;20436;-74
2021/01/23 07:06:51;;;;;;;6.73;5.93;;;4.60;99.90;;;;;;5122705;28;20423;-75
2021/01/23 07:09:17;;;;;;;8.83;6.30;;;4.60;99.90;;;;;;5126263;28;20404;-74
2021/01/23 07:11:42;;;;;;;6.53;5.00;;;4.60;99.90;;;;;;5124408;28;20414;-74
2021/01/23 07:14:08;;;;;;;7.70;6.43;;;4.60;99.90;;;;;;5117297;28;20189;-74
2021/01/23 07:16:38;;;;;;;8.23;6.00;;;4.60;99.90;;;;;;5112242;28;20278;-74
2021/01/23 07:19:06;;;;;;;9.73;6.40;;;4.60;99.90;;;;;;5098361;27;20190;-74
2021/01/23 07:21:39;;;;;;;9.70;6.50;;;4.60;99.90;;;;;;5119001;28;20559;-74
2021/01/23 07:24:09;;;;;;;8.30;5.90;;;4.60;99.90;;;;;;5101264;28;20401;-74
2021/01/23 07:26:35;;;;;;;6.83;5.80;;;4.60;99.90;;;;;;5095294;28;20505;-74
2021/01/23 07:29:02;;;;;;;6.30;5.43;;;4.60;99.90;;;;;;5113848;28;20417;-74
2021/01/23 07:31:30;;;;;;;7.40;5.70;;;4.60;99.90;;;;;;5103667;27;20447;-74
2021/01/23 07:33:58;;;;;;;8.17;6.30;;;4.60;99.90;;;;;;5103577;28;20415;-74
2021/01/23 07:36:32;;;;;;;7.83;6.30;;;4.70;99.90;;;;;;5105211;28;20548;-74
2021/01/23 07:39:06;;;;;;;6.73;5.50;;;4.60;99.90;;;;;;5102745;28;20424;-74
2021/01/23 07:41:36;;;;;;;8.40;6.30;;;4.70;99.90;;;;;;5094593;27;20471;-74
2021/01/23 07:44:04;;;;;;;7.73;6.03;;;4.70;99.90;;;;;;5098999;28;20531;-74
2021/01/23 07:46:38;;;;;;;7.17;5.60;;;4.70;99.90;;;;;;5097877;28;20449;-74
2021/01/23 07:49:05;;;;;;;8.17;6.00;;;4.70;99.90;;;;;;5096503;28;20487;-71
2021/01/23 07:51:31;;;;;;;8.27;5.73;;;4.70;99.90;;;;;;5094744;27;20923;-72
2021/01/23 07:54:10;;;;;;;8.60;6.37;;;4.90;99.90;;;;;;5094959;28;20446;-71
2021/01/23 07:56:38;;;;;;;11.87;7.33;;;5.20;99.90;;;;;;5094779;28;20945;-72
2021/01/23 07:59:04;;;;;;;9.50;6.70;;;5.50;99.90;;;;;;5096873;28;20702;-72
2021/01/23 08:01:29;;;;;;;10.00;7.10;;;5.80;99.90;;;;;;5115470;28;20835;-73
2021/01/23 08:03:55;;;;;;;7.50;6.00;;;6.10;99.90;;;;;;5115041;27;20455;-73
2021/01/23 08:06:23;;;;;;;8.07;5.83;;;6.20;99.90;;;;;;5114950;28;20180;-74
2021/01/23 08:08:49;;;;;;;6.40;5.53;;;6.30;99.90;;;;;;5115569;28;20398;-74
2021/01/23 08:11:36;;;;;;;8.63;5.90;;;6.40;99.90;;;;;;5114522;28;20429;-73
2021/01/23 08:14:12;;;;;;;7.00;5.67;;;6.50;99.90;;;;;;5115325;28;20488;-72
2021/01/23 08:16:54;;;;;;;9.57;6.03;;;6.60;99.90;;;;;;5115681;28;20512;-73
2021/01/23 08:19:20;;;;;;;9.00;6.97;;;6.70;99.90;;;;;;5102317;28;20419;-74
2021/01/23 08:22:05;;;;;;;7.10;6.33;;;6.70;99.90;;;;;;5104342;28;20967;-72
2021/01/23 08:24:31;;;;;;;8.50;5.93;;;6.80;99.90;;;;;;5101529;28;20501;-71
2021/01/23 08:27:16;;;;;;;11.17;6.87;;;6.80;99.90;;;;;;5094556;28;20825;-73
2021/01/23 08:29:44;;;;;;;6.17;5.53;;;6.80;99.90;;;;;;5105311;27;20185;-74
2021/01/23 08:32:10;;;;;;;12.33;6.80;;;6.80;99.90;;;;;;5105932;28;20445;-72
2021/01/23 08:34:36;;;;;;;7.67;6.20;;;6.90;99.90;;;;;;5114900;28;20434;-73
2021/01/23 08:37:02;;;;;;;8.90;6.00;;;6.90;99.90;;;;;;5115346;28;20211;-76
2021/01/23 08:39:28;;;;;;;8.07;6.07;;;6.90;99.90;;;;;;5107513;27;20279;-75
2021/01/23 08:41:53;;;;;;;8.77;5.63;;;7.00;99.90;;;;;;5094828;28;20553;-73
2021/01/23 08:44:19;;;;;;;6.53;5.93;;;7.00;99.90;;;;;;5106459;28;20221;-73
2021/01/23 08:46:44;;;;;;;7.70;6.03;;;7.00;99.90;;;;;;5105868;28;20203;-76
2021/01/23 08:49:10;;;;;;;6.37;5.70;;;7.10;99.90;;;;;;5095528;28;20223;-76
2021/01/23 08:51:35;;;;;;;9.10;6.17;;;7.10;99.90;;;;;;5114241;28;20240;-73
2021/01/23 08:54:01;;;;;;;7.70;5.30;;;7.20;99.90;;;;;;5113558;27;20256;-72
2021/01/23 08:56:27;;;;;;;5.77;5.20;;;7.20;99.90;;;;;;5119318;27;20200;-74
2021/01/23 08:58:52;;;;;;;7.43;6.30;;;7.20;99.90;;;;;;5122035;27;20233;-75
2021/01/23 09:01:18;;;;;;;7.43;5.73;;;7.30;99.90;;;;;;5122187;27;22041;-75
2021/01/23 09:03:43;;;;;;;6.90;5.77;;;7.30;99.90;;;;;;5117415;28;20169;-77
2021/01/23 09:06:09;;;;;;;6.37;5.70;;;7.30;99.90;;;;;;5113002;27;20257;-75
2021/01/23 09:08:35;;;;;;;7.90;5.60;;;7.20;99.90;;;;;;5094331;28;20177;-75
2021/01/23 09:11:00;;;;;;;8.17;6.30;;;7.20;99.90;;;;;;5098481;28;20674;-75
2021/01/23 09:13:26;;;;;;;7.13;6.17;;;7.20;99.90;;;;;;5135183;27;20401;-76
2021/01/23 09:15:51;;;;;;;9.10;6.00;;;7.10;99.90;;;;;;5134396;27;20188;-76
2021/01/23 09:18:17;;;;;;;8.40;6.30;;;7.00;99.90;;;;;;5134801;27;20517;-75
2021/01/23 09:20:43;;;;;;;8.97;5.97;;;7.00;99.90;;;;;;5132963;27;20183;-75
2021/01/23 09:23:09;;;;;;;7.20;5.83;;;7.00;99.90;;;;;;5112550;27;20279;-75
2021/01/23 09:25:34;;;;;;;11.23;6.40;;;7.00;99.90;;;;;;5114290;28;20437;-74
2021/01/23 09:27:59;;;;;;;6.73;5.23;;;7.10;99.90;;;;;;5102028;28;20178;-73
2021/01/23 09:30:28;;;;;;;8.00;6.43;;;7.10;99.90;;;;;;5114808;27;20192;-74
2021/01/23 09:32:53;;;;;;;5.87;5.30;;;7.00;99.90;;;;;;5098264;28;20189;-75
2021/01/23 09:35:19;;;;;;;11.83;5.77;;;7.00;99.90;;;;;;5099226;28;20455;-74
2021/01/23 09:37:44;;;;;;;9.70;6.50;;;7.00;99.90;;;;;;5104676;28;20235;-74
2021/01/23 09:40:10;;;;;;;7.93;6.07;;;7.00;99.90;;;;;;5093572;28;20356;-74
2021/01/23 09:42:36;;;;;;;8.50;6.10;;;7.00;99.90;;;;;;5094479;28;20200;-74
2021/01/23 09:45:03;;;;;;;7.50;6.30;;;6.90;99.90;;;;;;5100638;27;20442;-73
2021/01/23 09:47:28;;;;;;;7.77;6.20;;;6.80;99.90;;;;;;5112097;28;20287;-75
2021/01/23 09:49:54;;;;;;;6.87;5.43;;;6.90;99.90;;;;;;5116041;28;20448;-75
2021/01/23 09:52:52;;;;;;;7.43;5.80;;;6.90;99.90;;;;;;5114519;28;20176;-74
2021/01/23 09:55:18;;;;;;;8.57;6.03;;;6.90;99.90;;;;;;5114103;27;20202;-74
2021/01/23 09:57:44;;;;;;;6.80;5.70;;;6.90;99.90;;;;;;5116518;28;20800;-74
2021/01/23 10:00:11;;;;;;;6.80;5.97;;;7.00;99.90;;;;;;5115195;28;20169;-74
2021/01/23 10:02:37;;;;;;;7.30;5.50;;;7.00;99.90;;;;;;5113853;27;20198;-73
2021/01/23 10:05:03;;;;;;;6.00;5.03;;;7.10;99.90;;;;;;5113549;27;20439;-73
2021/01/23 10:07:29;;;;;;;6.80;5.63;;;7.10;99.90;;;;;;5107450;28;20197;-75
2021/01/23 10:09:55;;;;;;;9.20;6.53;;;7.00;99.90;;;;;;5126657;28;20403;-75
2021/01/23 10:12:21;;;;;;;7.33;6.10;;;7.10;99.90;;;;;;5120048;28;20424;-74
2021/01/23 10:14:46;;;;;;;7.93;6.03;;;7.00;99.90;;;;;;5103219;27;21017;-74
2021/01/23 10:17:14;;;;;;;8.37;5.73;;;7.00;99.90;;;;;;5100823;28;20205;-74
2021/01/23 10:19:40;;;;;;;6.80;5.87;;;7.10;99.90;;;;;;5098391;28;20173;-75
2021/01/23 10:22:05;;;;;;;6.83;5.43;;;7.00;99.90;;;;;;5097512;28;20456;-76
2021/01/23 10:24:31;;;;;;;8.90;5.43;;;7.10;99.90;;;;;;5096786;28;20744;-74
2021/01/23 10:26:56;;;;;;;7.10;5.87;;;7.10;99.90;;;;;;5097564;27;20642;-75
2021/01/23 10:29:22;;;;;;;6.47;5.80;;;7.20;99.90;;;;;;5106963;28;20178;-74
2021/01/23 10:31:48;;;;;;;9.70;5.90;;;7.20;99.90;;;;;;5098444;28;20176;-74
2021/01/23 10:34:13;;;;;;;6.67;5.30;;;7.30;99.90;;;;;;5111472;27;20970;-74
2021/01/23 10:36:40;;;;;;;7.00;5.50;;;7.40;99.90;;;;;;5148656;27;20199;-75
2021/01/23 10:39:05;;;;;;;7.83;5.60;;;7.40;99.90;;;;;;5147562;27;20196;-75
2021/01/23 10:41:31;;;;;;;7.40;5.70;;;7.50;99.90;;;;;;5116985;27;20522;-75
2021/01/23 10:43:57;;;;;;;10.13;5.20;;;7.50;99.90;;;;;;5134894;27;20694;-75
2021/01/23 10:46:22;;;;;;;9.40;6.30;;;7.50;99.90;;;;;;5126736;27;20525;-75
2021/01/23 10:48:48;;;;;;;7.87;5.80;;;7.60;99.90;;;;;;5121835;27;20535;-75
2021/01/23 10:51:14;;;;;;;11.43;6.50;;;7.60;99.90;;;;;;5128756;27;20682;-75
2021/01/23 10:53:40;;;;;;;7.10;5.50;;;7.60;99.90;;;;;;5119276;27;20199;-75
2021/01/23 10:56:06;;;;;;;9.37;5.60;;;7.60;99.90;;;;;;5128100;27;20453;-75
2021/01/23 10:58:32;;;;;;;6.70;5.10;;;7.80;99.90;;;;;;5128277;27;20168;-75
2021/01/23 11:00:58;;;;;;;7.43;5.43;;;7.80;99.90;;;;;;5118533;27;20215;-75
2021/01/23 11:03:23;;;;;;;6.67;5.10;;;7.80;99.90;;;;;;5103309;27;20471;-75
2021/01/23 11:05:51;;;;;;;6.40;5.30;;;7.80;99.90;;;;;;5113639;28;20294;-75
2021/01/23 11:08:16;;;;;;;7.73;4.97;;;7.80;99.90;;;;;;5118217;27;20187;-75
2021/01/23 11:10:42;;;;;;;6.53;4.90;;;7.80;99.90;;;;;;5122901;27;20814;-75
2021/01/23 11:13:08;;;;;;;5.57;5.00;;;7.90;99.90;;;;;;5125110;27;20220;-75
2021/01/23 11:15:33;;;;;;;4.77;4.27;;;7.90;99.90;;;;;;5133365;27;20543;-75
2021/01/23 11:17:59;;;;;;;7.30;4.90;;;7.90;99.90;;;;;;5129686;27;20528;-75
2021/01/23 11:20:26;;;;;;;5.17;4.63;;;8.00;99.90;;;;;;5115601;28;20543;-74
2021/01/23 11:22:51;;;;;;;6.63;5.07;;;8.20;99.90;;;;;;5115537;28;20446;-75
2021/01/23 11:25:17;;;;;;;5.17;4.63;;;8.20;99.90;;;;;;5130380;27;20427;-74
2021/01/23 11:27:42;;;;;;;5.73;4.40;;;8.20;99.90;;;;;;5116823;27;20657;-74
2021/01/23 11:30:10;;;;;;;6.47;4.83;;;8.20;99.90;;;;;;5115436;27;20166;-74
2021/01/23 11:32:36;;;;;;;5.30;4.80;;;8.10;99.90;;;;;;5115775;28;20172;-74
2021/01/23 11:35:03;;;;;;;5.17;4.30;;;7.90;99.90;;;;;;5129887;27;20432;-74
2021/01/23 11:37:29;;;;;;;5.90;5.00;;;7.90;99.90;;;;;;5122067;27;20461;-74
2021/01/23 11:39:54;;;;;;;5.43;4.93;;;8.00;99.90;;;;;;5128708;27;20534;-74
2021/01/23 11:42:20;;;;;;;4.60;4.20;;;8.00;99.90;;;;;;5135667;27;20202;-74
2021/01/23 11:44:45;;;;;;;5.90;4.67;;;8.00;99.90;;;;;;5127269;27;20174;-74
2021/01/23 11:47:11;;;;;;;4.70;3.97;;;8.00;99.90;;;;;;5135826;27;20191;-74
2021/01/23 11:49:37;;;;;;;4.53;4.10;;;7.90;99.80;;;;;;5117669;27;20588;-74
2021/01/23 11:52:03;;;;;;;4.93;3.73;;;7.90;99.60;;;;;;5120388;27;20187;-76
2021/01/23 11:54:28;;;;;;;5.50;4.23;;;7.90;99.90;;;;;;5130234;27;20595;-75
2021/01/23 11:56:54;;;;;;;4.23;3.83;;;7.90;99.90;;;;;;5135543;27;20427;-75
2021/01/23 11:59:19;;;;;;;4.07;3.63;;;7.90;99.90;;;;;;5119055;27;20303;-75
2021/01/23 12:01:45;;;;;;;4.50;3.87;;;7.80;99.70;;;;;;5115510;28;20196;-73
2021/01/23 12:04:10;;;;;;;5.40;4.17;;;7.90;99.60;;;;;;5114336;28;20169;-75
2021/01/23 12:06:36;;;;;;;4.20;3.80;;;7.80;99.40;;;;;;5092251;28;20569;-75
2021/01/23 12:09:02;;;;;;;6.77;4.30;;;7.90;99.60;;;;;;5095113;28;20235;-75
2021/01/23 12:11:30;;;;;;;5.37;3.77;;;7.90;99.60;;;;;;5095367;28;20176;-75
2021/01/23 12:13:55;;;;;;;4.93;4.03;;;7.90;99.60;;;;;;5095004;28;20403;-74
2021/01/23 12:16:21;;;;;;;5.40;4.30;;;7.90;99.60;;;;;;5095729;27;20512;-74
2021/01/23 12:18:46;;;;;;;5.97;3.57;;;7.90;99.40;;;;;;5095412;28;20253;-74
2021/01/23 12:21:12;;;;;;;7.30;4.13;;;8.00;99.50;;;;;;5095297;28;20203;-76
2021/01/23 12:23:38;;;;;;;10.80;4.40;;;7.90;99.10;;;;;;5094763;28;20177;-76
2021/01/23 12:26:03;;;;;;;8.47;4.93;;;7.90;99.00;;;;;;5096267;28;20279;-75
2021/01/23 12:28:28;;;;;;;4.70;4.30;;;7.80;99.20;;;;;;5095202;28;20216;-75
2021/01/23 12:30:54;;;;;;;5.10;4.33;;;7.60;99.00;;;;;;5094412;28;20247;-75
2021/01/23 12:33:20;;;;;;;4.77;3.63;;;7.70;99.30;;;;;;5094679;27;20264;-74
2021/01/23 12:35:45;;;;;;;6.43;4.50;;;7.70;99.20;;;;;;5094548;28;20224;-74
2021/01/23 12:38:11;;;;;;;5.23;4.73;;;7.70;98.90;;;;;;5113026;28;20172;-74
2021/01/23 12:40:36;;;;;;;5.03;4.20;;;7.80;98.90;;;;;;5116070;28;20173;-74
2021/01/23 12:43:02;;;;;;;5.33;4.30;;;7.80;98.70;;;;;;5118134;28;20551;-74
2021/01/23 12:45:27;;;;;;;5.57;5.03;;;7.80;99.00;;;;;;5138353;27;20259;-74
2021/01/23 12:47:53;;;;;;;5.70;5.00;;;7.80;99.10;;;;;;5135699;28;20167;-75
2021/01/23 12:50:19;;;;;;;6.93;4.40;;;7.90;99.00;;;;;;5114722;28;20177;-75
2021/01/23 12:52:45;;;;;;;5.03;4.53;;;8.00;98.90;;;;;;5112991;28;20634;-76
2021/01/23 12:55:11;;;;;;;5.30;4.80;;;8.00;98.80;;;;;;5114405;28;20422;-75